Time;durP1;ratioP1;P1;durP2;ratioP2;P2;SDS_P1;SDS_P2;PMS_P1;PMS_P2;Temp;Humidity;BMP_temperature;BMP_pressure;BME280_temperature;BME280_humidity;BME280_pressure;Samples;Min_cycle;Max_cycle;Signal;HPM_P1;HPM_P2
2023/03/08 00:01:33;;;;;;;11.23;10.53;;;;;;;6.55;70.92;91986.94;5068764;28;20223;-71
2023/03/08 00:03:59;;;;;;;12.90;11.83;;;;;;;6.51;70.92;91991.09;5069531;28;20173;-70
2023/03/08 00:06:26;;;;;;;10.93;10.33;;;;;;;6.44;71.48;91995.81;5067543;28;20227;-70
2023/03/08 00:08:56;;;;;;;11.33;10.33;;;;;;;6.36;71.54;91989.38;5069410;28;20886;-70
2023/03/08 00:11:21;;;;;;;11.10;10.33;;;;;;;6.40;71.62;92000.75;5068463;28;20205;-70
2023/03/08 00:13:47;;;;;;;10.77;10.07;;;;;;;6.45;71.48;92002.53;5069552;28;20181;-70
2023/03/08 00:16:13;;;;;;;11.33;10.63;;;;;;;6.42;71.94;91995.28;5067503;28;20217;-70
2023/03/08 00:18:38;;;;;;;10.90;10.10;;;;;;;6.38;72.48;92002.06;5068311;28;20209;-69
2023/03/08 00:21:10;;;;;;;11.80;10.80;;;;;;;6.16;71.98;91988.69;5068668;28;20252;-70
2023/03/08 00:23:36;;;;;;;10.30;9.60;;;;;;;6.12;72.02;91987.66;5068486;28;20204;-70
2023/03/08 00:26:02;;;;;;;11.87;10.97;;;;;;;6.03;73.24;91990.03;5068987;28;20271;-69
2023/03/08 00:28:27;;;;;;;10.63;10.10;;;;;;;5.96;73.72;91991.38;5068937;28;20201;-70
2023/03/08 00:31:08;;;;;;;11.43;10.63;;;;;;;6.03;73.97;91991.84;5068694;28;20243;-70
2023/03/08 00:33:34;;;;;;;12.33;11.37;;;;;;;5.87;74.40;91991.13;5068846;28;20200;-70
2023/03/08 00:36:03;;;;;;;10.53;9.93;;;;;;;5.82;74.50;91977.44;5068347;28;20217;-69
2023/03/08 00:38:30;;;;;;;10.80;10.13;;;;;;;5.96;74.38;91986.19;5101644;28;20186;-70
2023/03/08 00:40:56;;;;;;;10.87;10.03;;;;;;;5.93;74.59;91994.50;5068355;28;20249;-70
2023/03/08 00:43:21;;;;;;;10.97;10.17;;;;;;;5.86;74.99;91992.19;5068425;28;20185;-69
2023/03/08 00:45:47;;;;;;;10.80;10.30;;;;;;;5.74;75.53;91980.53;5068114;28;20229;-70
2023/03/08 00:48:12;;;;;;;11.83;11.07;;;;;;;5.85;75.17;91979.50;5067832;28;20213;-70
2023/03/08 00:50:38;;;;;;;10.47;9.67;;;;;;;5.79;75.73;91975.34;5068411;28;20229;-70
2023/03/08 00:53:03;;;;;;;11.87;10.70;;;;;;;5.77;75.66;91988.56;5068867;28;20193;-70
2023/03/08 00:55:29;;;;;;;11.27;10.57;;;;;;;5.72;75.72;91986.00;5068729;28;20241;-70
2023/03/08 00:57:54;;;;;;;11.53;10.63;;;;;;;5.79;75.30;91973.53;5068775;28;20212;-70
2023/03/08 01:00:20;;;;;;;11.13;10.43;;;;;;;5.59;75.63;91972.81;5067669;28;20225;-71
2023/03/08 01:02:45;;;;;;;11.37;10.63;;;;;;;5.58;76.17;91994.56;5068685;28;20201;-71
2023/03/08 01:05:11;;;;;;;11.67;10.97;;;;;;;5.52;76.57;91980.09;5067761;28;20347;-71
2023/03/08 01:07:36;;;;;;;11.77;10.97;;;;;;;5.50;76.95;91977.75;5067812;28;20216;-70
2023/03/08 01:10:04;;;;;;;12.10;11.20;;;;;;;5.65;77.10;91990.66;5067892;28;20204;-70
2023/03/08 01:12:32;;;;;;;10.90;10.30;;;;;;;5.67;77.09;91990.38;5068435;28;20190;-69
2023/03/08 01:14:57;;;;;;;11.70;10.87;;;;;;;5.65;77.57;91987.31;5066869;28;20249;-70
2023/03/08 01:17:23;;;;;;;11.90;11.10;;;;;;;5.55;77.79;91985.53;5068315;28;20186;-71
2023/03/08 01:19:48;;;;;;;11.80;11.00;;;;;;;5.53;77.58;91989.38;5068481;28;20223;-70
2023/03/08 01:22:14;;;;;;;11.77;10.83;;;;;;;5.62;77.56;91986.00;5068061;28;20301;-70
2023/03/08 01:24:46;;;;;;;11.13;10.50;;;;;;;5.61;77.53;91983.69;5068601;28;20196;-70
2023/03/08 01:27:11;;;;;;;11.43;10.73;;;;;;;5.55;77.57;91987.31;5067847;28;20237;-70
2023/03/08 01:29:37;;;;;;;11.27;10.57;;;;;;;5.49;77.76;91978.81;5068870;28;20211;-70
2023/03/08 01:32:02;;;;;;;10.67;10.17;;;;;;;5.56;77.55;91989.66;5071160;28;20245;-70
2023/03/08 01:34:28;;;;;;;10.17;9.67;;;;;;;5.52;77.63;91998.22;5072072;28;20186;-70
2023/03/08 01:36:53;;;;;;;11.13;10.23;;;;;;;5.44;78.73;91984.00;5103234;28;20256;-70
2023/03/08 01:39:18;;;;;;;10.93;10.30;;;;;;;5.41;78.97;91981.16;5071491;28;20166;-70
2023/03/08 01:41:44;;;;;;;10.37;9.77;;;;;;;5.55;78.25;91988.09;5071157;28;20237;-70
2023/03/08 01:44:23;;;;;;;10.57;9.80;;;;;;;5.72;77.46;91983.41;5071943;28;20221;-70
2023/03/08 01:46:48;;;;;;;11.57;10.63;;;;;;;5.81;77.22;91975.84;5070379;28;20283;-69
2023/03/08 01:49:20;;;;;;;12.03;11.43;;;;;;;5.79;77.58;91990.91;5071681;28;20213;-70
2023/03/08 01:51:52;;;;;;;11.90;11.00;;;;;;;5.94;77.05;91985.69;5070805;28;21004;-70
2023/03/08 01:54:42;;;;;;;11.87;11.00;;;;;;;5.86;77.83;91973.28;5071347;28;20185;-70
2023/03/08 01:57:17;;;;;;;11.63;10.93;;;;;;;5.74;78.28;91965.00;5071008;28;20463;-70
2023/03/08 01:59:43;;;;;;;10.30;9.70;;;;;;;5.71;78.23;91961.13;5071052;28;20188;-69
2023/03/08 02:02:09;;;;;;;11.00;10.30;;;;;;;5.59;78.51;91972.81;5070965;28;20248;-70
2023/03/08 02:04:36;;;;;;;10.43;9.83;;;;;;;5.72;78.46;91982.63;5071663;28;20193;-70
2023/03/08 02:07:02;;;;;;;11.93;11.00;;;;;;;5.49;78.29;91984.00;5069973;28;20237;-69
2023/03/08 02:09:27;;;;;;;10.57;9.93;;;;;;;5.41;78.49;91970.78;5071158;28;20253;-71
2023/03/08 02:11:57;;;;;;;11.27;10.57;;;;;;;5.52;79.02;91983.47;5070951;28;20213;-70
2023/03/08 02:14:24;;;;;;;10.60;9.97;;;;;;;5.57;78.90;91987.84;5070985;28;21349;-70
2023/03/08 02:16:50;;;;;;;9.70;9.20;;;;;;;5.16;79.67;91961.28;5070585;28;20221;-70
2023/03/08 02:19:45;;;;;;;12.37;11.33;;;;;;;4.89;81.01;91977.06;5070144;28;20201;-71
2023/03/08 02:22:14;;;;;;;12.00;11.17;;;;;;;5.16;80.58;92001.88;5066850;28;20229;-69
2023/03/08 02:24:40;;;;;;;11.63;10.77;;;;;;;5.27;79.74;92006.00;5071141;28;20185;-70
2023/03/08 02:27:12;;;;;;;11.53;10.83;;;;;;;5.19;80.04;91996.97;5069922;28;20221;-69
2023/03/08 02:29:38;;;;;;;10.83;9.77;;;;;;;5.12;81.12;92004.19;5068996;28;20185;-70
2023/03/08 02:32:03;;;;;;;11.87;11.07;;;;;;;5.10;81.22;91995.16;5070213;28;20248;-70
2023/03/08 02:34:29;;;;;;;11.57;10.57;;;;;;;5.07;81.46;91996.47;5071340;28;20260;-70
2023/03/08 02:36:54;;;;;;;11.33;10.63;;;;;;;5.04;82.00;91993.63;5070390;28;20314;-70
2023/03/08 02:39:19;;;;;;;11.73;10.93;;;;;;;4.94;82.62;91991.81;5071036;28;20208;-70
2023/03/08 02:41:45;;;;;;;10.97;10.27;;;;;;;4.97;82.18;91999.03;5069418;28;20221;-70
2023/03/08 02:44:10;;;;;;;11.43;10.53;;;;;;;4.98;82.99;91998.78;5070773;28;20241;-69
2023/03/08 02:46:36;;;;;;;11.43;10.67;;;;;;;4.92;82.17;92005.00;5070024;28;20244;-70
2023/03/08 02:49:01;;;;;;;11.00;10.10;;;;;;;4.83;82.35;92008.34;5070815;28;20243;-70
2023/03/08 02:51:26;;;;;;;11.67;10.97;;;;;;;4.71;83.31;91998.28;5070069;28;20229;-70
2023/03/08 02:53:52;;;;;;;10.47;9.80;;;;;;;4.65;83.53;91988.19;5070963;28;20185;-70
2023/03/08 02:56:17;;;;;;;11.77;10.80;;;;;;;4.67;84.45;92001.63;5070005;28;20224;-70
2023/03/08 02:58:43;;;;;;;11.70;11.00;;;;;;;4.76;83.89;92002.69;5071173;28;20194;-70
2023/03/08 03:01:12;;;;;;;12.23;11.53;;;;;;;4.82;82.92;91999.06;5069131;28;20222;-70
2023/03/08 03:03:38;;;;;;;12.33;11.57;;;;;;;5.07;82.42;92006.81;5070580;28;20194;-71
2023/03/08 03:06:04;;;;;;;11.97;11.07;;;;;;;5.04;82.59;92011.72;5068801;28;20232;-70
2023/03/08 03:08:30;;;;;;;11.50;10.60;;;;;;;4.72;82.97;91999.81;5070043;28;20277;-71
2023/03/08 03:10:56;;;;;;;12.47;11.37;;;;;;;4.63;83.54;92001.38;5068132;28;20841;-70
2023/03/08 03:13:21;;;;;;;12.17;11.07;;;;;;;4.55;84.35;92007.03;5069869;28;20174;-70
2023/03/08 03:15:47;;;;;;;11.13;10.43;;;;;;;4.59;85.90;92028.75;5069724;28;20293;-70
2023/03/08 03:18:12;;;;;;;12.43;11.43;;;;;;;4.51;85.75;92011.16;5069285;28;20189;-70
2023/03/08 03:20:38;;;;;;;12.13;11.23;;;;;;;4.62;85.51;92030.81;5069768;28;20237;-70
2023/03/08 03:23:03;;;;;;;11.93;11.23;;;;;;;4.67;85.43;92028.25;5069864;28;20201;-69
2023/03/08 03:25:29;;;;;;;12.03;11.00;;;;;;;4.67;84.54;92027.47;5069769;28;20300;-70
2023/03/08 03:27:55;;;;;;;11.53;10.83;;;;;;;4.50;85.57;92029.50;5070580;28;20213;-69
2023/03/08 03:30:21;;;;;;;11.13;10.40;;;;;;;4.32;86.52;92015.28;5069170;28;20232;-71
2023/03/08 03:32:46;;;;;;;12.20;11.40;;;;;;;4.27;87.52;92022.22;5069826;28;20193;-71
2023/03/08 03:35:11;;;;;;;12.53;11.23;;;;;;;4.19;88.34;92025.28;5069086;28;20245;-70
2023/03/08 03:37:37;;;;;;;12.57;11.67;;;;;;;4.39;88.34;92025.38;5068838;28;20208;-70
2023/03/08 03:40:03;;;;;;;13.23;12.33;;;;;;;4.44;88.05;92023.56;5069428;28;20231;-70
2023/03/08 03:42:29;;;;;;;12.70;11.50;;;;;;;4.26;88.67;92031.78;5068999;28;20185;-70
2023/03/08 03:44:54;;;;;;;11.50;10.67;;;;;;;4.38;87.97;92040.09;5068882;28;20217;-70
2023/03/08 03:47:20;;;;;;;12.23;11.33;;;;;;;4.42;87.46;92022.28;5069463;28;20278;-70
2023/03/08 03:49:45;;;;;;;12.00;11.23;;;;;;;4.46;87.52;92043.97;5069429;28;20224;-70
2023/03/08 03:52:10;;;;;;;12.40;11.43;;;;;;;4.46;87.63;92037.00;5069083;28;20225;-69
2023/03/08 03:54:36;;;;;;;11.63;10.83;;;;;;;4.41;87.26;92039.56;5069103;28;20177;-70
2023/03/08 03:57:01;;;;;;;11.90;10.87;;;;;;;4.42;87.05;92043.69;5068680;28;20225;-70
2023/03/08 03:59:27;;;;;;;11.73;10.60;;;;;;;4.24;88.73;92039.00;5069431;28;20182;-71
2023/03/08 04:01:52;;;;;;;11.67;10.77;;;;;;;4.26;88.20;92039.53;5068655;28;20229;-70
2023/03/08 04:04:18;;;;;;;11.80;10.70;;;;;;;4.08;89.01;92023.69;5069210;28;20201;-70
2023/03/08 04:06:43;;;;;;;12.63;11.63;;;;;;;4.28;88.20;92050.38;5068632;28;20225;-70
2023/03/08 04:09:14;;;;;;;12.90;11.90;;;;;;;4.29;88.67;92051.16;5068985;28;20216;-70
2023/03/08 04:11:39;;;;;;;12.77;11.53;;;;;;;4.32;88.72;92045.50;5067522;28;20232;-70
2023/03/08 04:14:05;;;;;;;13.43;12.23;;;;;;;4.28;88.35;92045.22;5069106;28;20202;-71
2023/03/08 04:16:33;;;;;;;13.07;11.60;;;;;;;4.23;90.76;92045.22;5068348;28;20221;-70
2023/03/08 04:19:09;;;;;;;11.33;10.53;;;;;;;4.46;88.64;92037.00;5068888;28;20189;-70
2023/03/08 04:21:34;;;;;;;13.43;12.50;;;;;;;4.40;88.72;92037.25;5068249;28;20233;-71
2023/03/08 04:24:00;;;;;;;12.23;11.43;;;;;;;4.40;88.43;92048.38;5068983;28;20200;-69
2023/03/08 04:26:25;;;;;;;12.00;11.03;;;;;;;4.44;88.53;92040.88;5068187;28;20229;-70
2023/03/08 04:28:51;;;;;;;13.00;11.87;;;;;;;4.49;88.29;92048.63;5069618;28;20220;-70
2023/03/08 04:31:20;;;;;;;12.60;11.53;;;;;;;4.36;88.71;92047.31;5068163;28;20263;-71
2023/03/08 04:33:46;;;;;;;12.23;11.20;;;;;;;4.36;88.91;92049.09;5069278;28;20193;-70
2023/03/08 04:36:13;;;;;;;12.60;11.70;;;;;;;4.44;88.05;92048.63;5067224;28;20228;-70
2023/03/08 04:38:38;;;;;;;11.70;10.90;;;;;;;4.34;89.06;92046.78;5068755;28;20213;-70
2023/03/08 04:41:09;;;;;;;11.87;10.93;;;;;;;4.43;88.98;92050.44;5068146;28;20228;-69
2023/03/08 04:43:35;;;;;;;12.27;11.33;;;;;;;4.41;88.50;92034.41;5068832;28;20192;-70
2023/03/08 04:46:02;;;;;;;12.10;11.33;;;;;;;4.43;89.29;92037.53;5067136;28;20210;-71
2023/03/08 04:48:28;;;;;;;12.00;11.00;;;;;;;4.48;89.21;92047.84;5068657;28;20205;-70
2023/03/08 04:50:54;;;;;;;12.93;11.73;;;;;;;4.09;90.08;92038.19;5068065;28;20901;-70
2023/03/08 04:53:21;;;;;;;12.93;12.00;;;;;;;4.52;89.25;92041.16;5068520;28;20189;-71
2023/03/08 04:55:46;;;;;;;13.23;12.23;;;;;;;4.53;88.53;92042.69;5068080;28;20229;-77
2023/03/08 04:58:11;;;;;;;12.43;11.47;;;;;;;4.54;88.56;92049.44;5068844;28;20236;-75
2023/03/08 05:00:37;;;;;;;13.97;11.50;;;;;;;4.27;89.89;92048.84;5067958;28;20232;-71
2023/03/08 05:03:02;;;;;;;14.77;12.27;;;;;;;4.42;90.36;92055.88;5064915;28;20186;-68
2023/03/08 05:05:28;;;;;;;13.37;12.03;;;;;;;4.43;89.63;92037.53;5067666;28;20263;-68
2023/03/08 05:07:53;;;;;;;13.53;12.53;;;;;;;4.52;88.54;92046.31;5070267;28;20217;-69
2023/03/08 05:10:18;;;;;;;13.50;12.37;;;;;;;4.45;89.83;92069.03;5071500;28;20221;-69
2023/03/08 05:12:44;;;;;;;16.93;11.07;;;;;;;4.69;88.14;92057.22;5071304;28;20188;-70
2023/03/08 05:15:10;;;;;;;13.07;12.07;;;;;;;4.83;87.65;92078.94;5070764;28;20248;-70
2023/03/08 05:17:35;;;;;;;15.27;13.53;;;;;;;4.67;88.29;92074.78;5072162;28;20190;-66
2023/03/08 05:20:01;;;;;;;13.93;12.70;;;;;;;5.08;85.99;92077.41;5068609;28;20189;-67
2023/03/08 05:22:26;;;;;;;14.83;13.30;;;;;;;4.78;88.38;92097.03;5072770;28;20264;-66
2023/03/08 05:24:52;;;;;;;15.57;13.67;;;;;;;5.03;87.76;92092.94;5069724;28;20969;-70
2023/03/08 05:27:17;;;;;;;16.73;14.97;;;;;;;5.28;86.33;92106.66;5070088;28;20213;-69
2023/03/08 05:29:43;;;;;;;17.77;14.33;;;;;;;5.30;85.45;92098.66;5071719;28;20200;-71
2023/03/08 05:32:12;;;;;;;17.27;14.07;;;;;;;5.35;85.19;92107.19;5070277;28;20209;-70
2023/03/08 05:34:37;;;;;;;15.97;14.47;;;;;;;5.26;85.60;92113.91;5069591;28;20209;-71
2023/03/08 05:37:02;;;;;;;15.27;13.70;;;;;;;5.52;84.48;92106.94;5069246;28;20229;-72
2023/03/08 05:39:29;;;;;;;13.70;12.40;;;;;;;5.04;86.71;92121.16;5071128;28;20197;-70
2023/03/08 05:41:55;;;;;;;14.23;12.57;;;;;;;5.12;87.55;92112.84;5052526;28;20235;-74
2023/03/08 05:44:20;;;;;;;18.37;13.57;;;;;;;5.10;86.69;92130.47;5051137;28;20218;-74
2023/03/08 05:46:49;;;;;;;14.23;12.83;;;;;;;5.09;86.31;92115.19;5067543;28;20229;-74
2023/03/08 05:49:14;;;;;;;13.53;12.43;;;;;;;5.11;85.54;92126.84;5071578;28;20205;-74
2023/03/08 05:51:39;;;;;;;15.07;13.40;;;;;;;5.15;86.03;92121.94;5071862;28;20236;-74
2023/03/08 05:54:05;;;;;;;13.73;12.33;;;;;;;4.69;86.80;92069.34;5071475;28;20228;-74
2023/03/08 05:56:30;;;;;;;13.97;12.67;;;;;;;4.95;87.04;92136.38;5071024;28;20221;-74
2023/03/08 05:58:56;;;;;;;14.60;13.40;;;;;;;4.94;87.29;92121.91;5070767;28;20232;-74
2023/03/08 06:01:26;;;;;;;14.70;13.43;;;;;;;4.96;87.57;92113.88;5069583;28;20232;-75
2023/03/08 06:03:54;;;;;;;17.53;14.97;;;;;;;5.28;86.42;92136.94;5069704;28;20209;-74
2023/03/08 06:06:22;;;;;;;17.47;13.73;;;;;;;5.37;85.76;92135.41;5070246;28;20298;-74
2023/03/08 06:08:48;;;;;;;16.67;14.93;;;;;;;5.09;85.46;92091.91;5070448;28;20216;-74
2023/03/08 06:11:13;;;;;;;21.03;15.27;;;;;;;5.40;85.94;92129.72;5070274;28;20221;-75
2023/03/08 06:13:39;;;;;;;21.70;14.97;;;;;;;5.36;85.21;92128.66;5070873;28;20185;-74
2023/03/08 06:16:05;;;;;;;17.00;15.27;;;;;;;5.48;85.19;92139.56;5068891;28;20273;-74
2023/03/08 06:18:32;;;;;;;17.37;14.43;;;;;;;5.42;85.45;92150.91;5071004;28;20216;-75
2023/03/08 06:21:17;;;;;;;17.33;15.43;;;;;;;5.23;86.16;92139.53;5070950;28;20232;-74
2023/03/08 06:23:44;;;;;;;16.13;14.43;;;;;;;5.33;85.94;92150.66;5070708;28;20217;-75
2023/03/08 06:26:10;;;;;;;17.53;15.60;;;;;;;5.76;84.77;92164.94;5070786;28;20268;-74
2023/03/08 06:28:36;;;;;;;18.33;14.67;;;;;;;5.89;83.64;92167.00;5071549;28;20236;-74
2023/03/08 06:31:03;;;;;;;16.47;14.73;;;;;;;5.84;84.06;92172.19;5070173;28;20270;-74
2023/03/08 06:33:30;;;;;;;19.10;14.27;;;;;;;5.77;84.49;92171.66;5071432;28;20197;-75
2023/03/08 06:36:05;;;;;;;15.97;13.87;;;;;;;5.62;85.31;92180.19;5070387;28;20244;-75
2023/03/08 06:38:33;;;;;;;15.13;13.67;;;;;;;5.77;85.34;92172.44;5070036;28;20181;-75
2023/03/08 06:41:00;;;;;;;14.67;12.87;;;;;;;5.65;86.03;92165.97;5069245;28;20223;-74
2023/03/08 06:43:25;;;;;;;16.30;14.00;;;;;;;5.74;85.48;92170.38;5069162;28;20193;-74
2023/03/08 06:45:51;;;;;;;14.30;12.83;;;;;;;5.70;85.52;92174.50;5070016;28;20221;-74
2023/03/08 06:48:16;;;;;;;15.47;13.97;;;;;;;5.95;85.04;92195.25;5070694;28;20216;-75
2023/03/08 06:50:42;;;;;;;16.27;14.63;;;;;;;6.24;83.75;92172.16;5070353;28;20197;-74
2023/03/08 06:53:08;;;;;;;13.70;12.37;;;;;;;6.48;81.92;92162.75;5070453;28;20192;-74
2023/03/08 06:55:35;;;;;;;14.30;12.90;;;;;;;6.66;81.59;92184.72;5069883;28;20386;-75
2023/03/08 06:58:01;;;;;;;13.70;12.30;;;;;;;6.70;81.48;92191.72;5069838;28;20228;-74
2023/03/08 07:00:26;;;;;;;13.63;12.63;;;;;;;6.70;80.65;92183.16;5069763;28;20229;-75
2023/03/08 07:02:52;;;;;;;13.73;12.57;;;;;;;6.72;80.00;92207.81;5069260;28;20207;-75
2023/03/08 07:05:18;;;;;;;13.80;12.60;;;;;;;6.89;79.66;92221.22;5069719;28;20229;-75
2023/03/08 07:07:43;;;;;;;12.87;11.70;;;;;;;6.80;80.81;92215.03;5070098;28;20202;-75
2023/03/08 07:10:11;;;;;;;14.10;12.80;;;;;;;7.01;79.32;92216.50;5069334;28;20236;-75
2023/03/08 07:12:39;;;;;;;12.83;11.73;;;;;;;7.17;79.59;92223.19;5070574;28;20193;-75
2023/03/08 07:15:06;;;;;;;11.93;11.07;;;;;;;7.16;79.80;92232.00;5069219;28;20663;-75
2023/03/08 07:17:33;;;;;;;11.27;10.47;;;;;;;7.44;78.22;92218.34;5070043;28;20208;-75
2023/03/08 07:19:59;;;;;;;12.00;11.20;;;;;;;8.29;75.01;92218.81;5069662;28;20184;-75
2023/03/08 07:22:24;;;;;;;11.30;10.33;;;;;;;8.73;73.38;92214.22;5070192;28;20189;-75
2023/03/08 07:24:50;;;;;;;12.20;11.13;;;;;;;8.80;73.34;92225.84;5069573;28;20187;-75
2023/03/08 07:27:15;;;;;;;12.90;11.70;;;;;;;8.80;73.27;92230.28;5069436;28;20824;-75
2023/03/08 07:29:40;;;;;;;13.07;11.80;;;;;;;8.73;72.21;92225.41;5070234;28;20204;-75
2023/03/08 07:32:06;;;;;;;10.93;10.03;;;;;;;9.24;70.72;92225.63;5069589;28;20217;-75
2023/03/08 07:34:31;;;;;;;12.27;11.27;;;;;;;9.56;69.97;92238.75;5069836;28;20197;-74
2023/03/08 07:36:57;;;;;;;11.60;10.50;;;;;;;9.89;67.95;92226.56;5069234;28;20922;-75
2023/03/08 07:39:22;;;;;;;11.60;10.60;;;;;;;10.42;65.90;92233.06;5069261;28;20169;-75
2023/03/08 07:41:48;;;;;;;12.53;11.37;;;;;;;10.58;64.38;92195.22;5069747;28;20256;-75
2023/03/08 07:44:14;;;;;;;10.47;9.77;;;;;;;10.61;63.63;92228.56;5069577;28;20260;-75
2023/03/08 07:46:39;;;;;;;12.40;11.20;;;;;;;10.52;64.38;92233.66;5069393;28;20240;-75
2023/03/08 07:49:09;;;;;;;11.73;10.97;;;;;;;10.58;64.58;92219.50;5069581;28;20281;-73
2023/03/08 07:51:35;;;;;;;12.70;10.97;;;;;;;10.70;65.12;92237.28;5069721;28;20222;-75
2023/03/08 07:54:00;;;;;;;11.93;11.13;;;;;;;10.49;64.79;92226.41;5069292;28;20268;-75
2023/03/08 07:56:26;;;;;;;11.00;10.10;;;;;;;10.57;64.72;92238.03;5069480;28;20233;-75
2023/03/08 07:58:51;;;;;;;11.10;10.30;;;;;;;10.67;63.95;92232.63;5069917;28;20205;-75
2023/03/08 08:01:16;;;;;;;11.53;10.53;;;;;;;10.88;63.47;92244.28;5069817;28;20223;-75
2023/03/08 08:03:42;;;;;;;11.90;10.90;;;;;;;10.52;62.61;92246.72;5068952;28;20221;-75
2023/03/08 08:06:08;;;;;;;12.40;11.23;;;;;;;10.41;63.22;92234.88;5069088;28;20328;-75
2023/03/08 08:08:34;;;;;;;11.37;10.67;;;;;;;10.60;62.87;92253.88;5069311;28;20205;-75
2023/03/08 08:11:00;;;;;;;11.27;10.33;;;;;;;10.43;62.65;92211.16;5068083;28;20232;-74
2023/03/08 08:13:28;;;;;;;11.77;10.83;;;;;;;10.53;64.30;92248.28;5068941;28;20235;-75
2023/03/08 08:16:01;;;;;;;11.27;10.57;;;;;;;10.62;63.05;92246.56;5068790;28;20243;-75
2023/03/08 08:18:27;;;;;;;11.77;10.90;;;;;;;10.47;64.35;92246.81;5068858;28;20196;-75
2023/03/08 08:21:06;;;;;;;11.53;10.73;;;;;;;10.66;62.62;92257.97;5069272;28;20228;-75
2023/03/08 08:23:33;;;;;;;11.07;10.20;;;;;;;10.48;63.48;92258.78;5067776;28;20265;-75
2023/03/08 08:25:58;;;;;;;11.20;10.27;;;;;;;10.64;63.29;92254.88;5069140;28;20229;-75
2023/03/08 08:28:25;;;;;;;12.17;10.97;;;;;;;11.01;62.36;92257.34;5069355;28;20221;-74
2023/03/08 08:31:04;;;;;;;10.67;9.97;;;;;;;11.32;60.74;92239.25;5068548;28;20224;-75
2023/03/08 08:33:31;;;;;;;11.67;10.67;;;;;;;11.12;60.07;92223.97;5068743;28;20181;-75
2023/03/08 08:35:57;;;;;;;12.03;11.03;;;;;;;11.01;61.38;92244.28;5068393;28;20230;-74
2023/03/08 08:38:23;;;;;;;11.87;11.07;;;;;;;10.66;62.32;92255.34;5068917;28;20225;-75
2023/03/08 08:40:48;;;;;;;11.60;10.60;;;;;;;10.50;63.23;92235.81;5070507;28;20232;-75
2023/03/08 08:43:14;;;;;;;11.53;10.63;;;;;;;10.03;64.79;92249.03;5073163;28;20264;-75
2023/03/08 08:45:44;;;;;;;12.17;11.30;;;;;;;10.04;63.71;92234.19;5071361;28;20232;-74
2023/03/08 08:48:10;;;;;;;11.63;10.83;;;;;;;10.43;62.82;92256.25;5072991;28;20237;-75
2023/03/08 08:50:39;;;;;;;12.70;11.53;;;;;;;10.07;63.18;92218.75;5072428;28;20225;-75
2023/03/08 08:53:06;;;;;;;11.33;10.63;;;;;;;10.66;63.19;92249.38;5072574;28;20199;-75
2023/03/08 08:55:31;;;;;;;11.10;10.00;;;;;;;10.86;60.24;92231.50;5071385;28;20232;-75
2023/03/08 08:57:57;;;;;;;11.27;10.43;;;;;;;11.38;59.78;92265.00;5072413;28;20201;-75
2023/03/08 09:00:22;;;;;;;11.23;10.47;;;;;;;11.89;58.83;92253.53;5072419;28;20222;-75
2023/03/08 09:02:48;;;;;;;12.43;11.17;;;;;;;12.07;57.30;92263.06;5072598;28;20186;-75
2023/03/08 09:05:13;;;;;;;10.97;10.07;;;;;;;11.83;56.82;92242.41;5072212;28;20579;-75
2023/03/08 09:07:39;;;;;;;13.30;10.50;;;;;;;11.77;57.59;92263.72;5072387;28;20295;-75
2023/03/08 09:10:05;;;;;;;11.83;10.70;;;;;;;11.65;58.39;92259.00;5072019;28;20183;-74
2023/03/08 09:12:30;;;;;;;12.97;11.60;;;;;;;12.22;56.73;92249.66;5072268;28;20174;-75
2023/03/08 09:14:56;;;;;;;10.93;10.07;;;;;;;12.53;56.43;92263.56;5071904;28;20189;-75
2023/03/08 09:17:21;;;;;;;11.70;10.87;;;;;;;12.56;55.38;92263.00;5072608;28;20249;-75
2023/03/08 09:19:47;;;;;;;11.90;10.93;;;;;;;12.45;55.91;92257.22;5072425;28;20257;-75
2023/03/08 09:22:12;;;;;;;11.27;10.30;;;;;;;12.81;54.63;92270.22;5071103;28;20315;-75
2023/03/08 09:24:38;;;;;;;12.97;10.57;;;;;;;12.74;54.55;92259.41;5072110;28;20218;-75
2023/03/08 09:27:04;;;;;;;12.77;11.47;;;;;;;12.46;55.78;92258.00;5072129;28;20223;-75
2023/03/08 09:29:30;;;;;;;12.00;10.87;;;;;;;11.97;56.99;92235.28;5072799;28;20178;-75
2023/03/08 09:31:55;;;;;;;13.50;12.10;;;;;;;12.22;56.10;92236.56;5072095;28;20266;-75
2023/03/08 09:34:20;;;;;;;15.47;11.43;;;;;;;12.34;55.54;92244.66;5072031;28;20185;-75
2023/03/08 09:36:46;;;;;;;13.03;11.67;;;;;;;12.51;54.80;92250.03;5072039;28;20225;-75
2023/03/08 09:39:12;;;;;;;12.90;11.90;;;;;;;12.27;56.64;92239.06;5071468;28;20192;-76
2023/03/08 09:41:47;;;;;;;12.73;11.33;;;;;;;12.04;55.73;92245.34;5071552;28;20220;-75
2023/03/08 09:44:50;;;;;;;10.33;9.43;;;;;;;12.12;56.46;92240.22;5071479;28;20225;-75
2023/03/08 09:47:55;;;;;;;12.63;11.43;;;;;;;12.66;54.18;92247.03;5070653;28;20217;-75
2023/03/08 09:50:48;;;;;;;10.47;9.57;;;;;;;12.15;56.66;92236.22;5067981;28;20286;-75
2023/03/08 09:53:28;;;;;;;12.83;11.53;;;;;;;11.71;58.75;92236.13;5071904;28;20187;-75
2023/03/08 09:56:00;;;;;;;12.23;10.83;;;;;;;11.80;57.51;92234.38;5070952;28;20242;-75
2023/03/08 09:58:42;;;;;;;12.70;11.40;;;;;;;11.85;56.73;92236.88;5071898;28;20191;-75
2023/03/08 10:01:31;;;;;;;11.87;10.97;;;;;;;11.41;57.34;92234.13;5070906;28;20228;-74
2023/03/08 10:04:05;;;;;;;11.70;10.57;;;;;;;10.67;59.97;92233.44;5071291;28;20193;-75
2023/03/08 10:07:21;;;;;;;12.07;10.80;;;;;;;11.41;59.59;92228.91;5071535;28;20307;-75
2023/03/08 10:10:24;;;;;;;12.57;11.40;;;;;;;11.78;58.47;92231.28;5061809;28;20205;-76
2023/03/08 10:13:06;;;;;;;11.10;10.03;;;;;;;12.12;55.66;92224.50;5070147;28;20228;-75
2023/03/08 10:15:39;;;;;;;12.90;11.60;;;;;;;12.50;54.64;92232.75;5069431;28;20221;-75
2023/03/08 10:18:23;;;;;;;13.07;11.87;;;;;;;12.04;55.92;92227.03;5071243;28;20193;-74
2023/03/08 10:20:48;;;;;;;11.67;10.60;;;;;;;12.11;55.10;92204.63;5070478;28;20240;-75
2023/03/08 10:23:15;;;;;;;11.87;11.10;;;;;;;11.90;56.07;92219.25;5103931;28;20186;-71
2023/03/08 10:25:42;;;;;;;12.73;11.17;;;;;;;12.06;55.66;92223.03;5071050;28;20237;-71
2023/03/08 10:28:14;;;;;;;12.70;11.60;;;;;;;11.81;56.37;92220.25;5069663;28;20236;-70
2023/03/08 10:30:50;;;;;;;12.23;11.17;;;;;;;11.91;56.35;92223.41;5069940;28;20323;-71
2023/03/08 10:33:18;;;;;;;12.57;11.33;;;;;;;12.08;58.56;92214.91;5070563;28;20241;-71
2023/03/08 10:35:54;;;;;;;11.90;10.90;;;;;;;12.04;56.39;92214.75;5070648;28;20239;-72
2023/03/08 10:38:20;;;;;;;12.40;11.27;;;;;;;12.47;56.04;92217.63;5070293;28;20177;-71
2023/03/08 10:40:45;;;;;;;11.87;10.80;;;;;;;12.49;54.47;92221.53;5070269;28;20229;-70
2023/03/08 10:43:25;;;;;;;14.63;10.97;;;;;;;12.73;54.22;92195.00;5070177;28;20189;-71
2023/03/08 10:46:09;;;;;;;12.90;11.30;;;;;;;13.40;52.37;92214.69;5070030;28;20236;-71
2023/03/08 10:48:35;;;;;;;12.17;11.07;;;;;;;13.87;51.10;92203.38;5071227;28;20201;-71
2023/03/08 10:51:04;;;;;;;12.43;10.97;;;;;;;13.92;51.30;92205.84;5070421;28;20236;-71
2023/03/08 10:53:30;;;;;;;12.40;11.30;;;;;;;13.61;50.14;92204.41;5068838;28;20189;-71
2023/03/08 10:55:58;;;;;;;13.27;12.07;;;;;;;13.45;51.18;92201.44;5070091;28;20236;-71
2023/03/08 10:58:36;;;;;;;13.57;12.47;;;;;;;13.96;49.91;92206.00;5071140;28;20174;-70
2023/03/08 11:01:05;;;;;;;12.43;11.23;;;;;;;14.54;49.45;92205.53;5069744;28;20232;-71
2023/03/08 11:03:31;;;;;;;14.80;12.70;;;;;;;14.47;48.24;92200.75;5069048;28;20178;-70
2023/03/08 11:05:58;;;;;;;14.03;12.60;;;;;;;14.30;49.05;92196.28;5070028;28;20228;-71
2023/03/08 11:08:33;;;;;;;13.90;12.60;;;;;;;13.95;49.79;92199.97;5070888;28;20337;-71
2023/03/08 11:11:00;;;;;;;14.73;12.27;;;;;;;14.07;49.36;92194.88;5070060;28;20263;-70
2023/03/08 11:13:31;;;;;;;13.20;12.10;;;;;;;13.07;51.48;92183.91;5069621;28;20188;-71
2023/03/08 11:16:33;;;;;;;13.00;11.80;;;;;;;13.93;49.98;92185.63;5069855;28;20312;-71
2023/03/08 11:19:23;;;;;;;13.83;12.67;;;;;;;14.13;48.99;92185.75;5069242;28;20263;-71
2023/03/08 11:22:14;;;;;;;13.53;12.33;;;;;;;14.28;48.15;92180.09;5069814;28;20226;-71
2023/03/08 11:24:45;;;;;;;13.20;12.00;;;;;;;14.36;47.30;92174.06;5069230;28;20231;-71
2023/03/08 11:27:17;;;;;;;14.10;11.23;;;;;;;14.67;46.01;92167.78;5068679;28;20724;-70
2023/03/08 11:30:17;;;;;;;12.07;10.93;;;;;;;14.45;46.96;92145.91;5068668;28;20224;-71